KLXT

Lee's Summit Municipal Airport

Lee's Summit, Missouri, USA
METAR KLXT 240133Z AUTO 17014G22KT 10SM FEW046 FEW080 25/19 A3008 RMK AO2 TSB12E27 T02500189
Observed Flight Rules
May-24 @ 01:33 UTC (18 minutes ago) Visual Flight Rules
Wind Visibility Clouds
170° at 14 knots
 Gusting to 22 knots
10 miles
  • Few at 4,600' AGL
  • Few at 8,000' AGL
Temperatures Readings
Current 25°C / 77°F
Dewpoint 19°C / 66°F
Humidity 69%
Altimeter 30.08" Hg
Pressure 1019 hPa
Elevation 306
METAR KLXT 240133Z AUTO 17014G22KT 10SM FEW046 FEW080 25/19 A3008 RMK AO2 TSB12E27 T02500189
Observed Flight Rules
May-24 @ 01:33 UTC
(18 minutes ago)
VFR
Wind Visibility
170° at 14 knots
 Gusting to 22 knots
10 miles
Clouds
  • Few at 4,600' AGL
  • Few at 8,000' AGL
Temperature Dewpoint
25°C / 77°F 19°C / 66°F
Humidity Altimeter Pressure
69% 30.08" Hg 1019 hPa